Airfield :
LOGIN :

Register | Disclaimer

   EN    FR    IT 

 










Legend :    VFR   Marginal VFR   IFR   Intensive IFR   Very Intensive IFR
Visi :
Ceiling :
>= 8 km
>= 3000ft
5 to 8 km
1000 to 3000 ft
1500m to 5 km
500 to 1000 ft
800 to 1500m
200 to 500 ft
< 800m
< 200 ft
Symbols :   Thunderstorms  Fog  Heavy snow  Heavy precipitations  Wind > 20 kt
SIGMETs :     Misc.  Thunderstorms  Icing  Turbulence  Mountain Waves  Volcanic Ashes







- Airport Elevation : 112 ft
- IATA code : SVQ


LEZL - Sevilla San Pablo

CURRENT METAR :
  • 162200Z 19004KT 150V240 CAVOK 23/13 Q1021 NOSIG

EXPIRED METARs :
  • 162130Z 18006KT 160V220 CAVOK 23/13 Q1021 NOSIG
  • 162100Z 19005KT CAVOK 24/13 Q1021 NOSIG
  • 162030Z 19005KT 9000 NSC 24/12 Q1021 NOSIG
  • 162000Z 19003KT 160V240 9000 NSC 25/12 Q1021 NOSIG
  • 161930Z 22003KT 8000 NSC 25/13 Q1021 NOSIG

TAF TAF LEZL
Valid from the 16 at 21:00 until the 17 at 21:00 UTC


162000Z 1621/1721 23006KT CAVOK TX27/1715Z TN16/1706Z
TEMPO 1711/1720 22015G25KT 4000 RA BKN030
No reported NOTAMs for that airfield.
1 SIGMET reported for the Madrid FIR (LECM) :
 
Embedded thunderstorms
LECM SIGMET 1 VALID 162135/162330 LEVA
LECM MADRID FIR/UIR EMBD TS OBS AT 2135Z S OF LINE N4220 W00840 - N4230 W008 TOP FL320 MOV N NC=



MET'MAP, your aeronautical weather chart ! - Copyright ORBIFLY December 2007 - Disclaimer

ORBIFLY MET'MAP TEAM :

Programming & Development : Alexandra Zaïnal
Concept & Development : Baudouin d'Aumeries
Co-Development & Prog : Marc-Olivier Méhu
Technical & hardware support : Manuel Goepfert

Contact : metmap@orbifly.com




SOURCES & CREDITS :

   NOAA